This is the latest recevied weather packets stored in our database for station/object KLGA. If no packets are shown the sender has not sent any weather packets the latest 1 day(s).
| Time | Temp. | Humidity | Pressure | Rain* | Wind** | Luminosity | Snow |
|---|---|---|---|---|---|---|---|
| 1778031812 | 17.78° C | 63% | 1009.5 hPa | - | - | - | - |
| 1778030611 | 17.78° C | 63% | 1009.5 hPa | - | - | - | - |
| 1778030013 | 17.78° C | 63% | 1009.5 hPa | - | - | - | - |
| 1778027611 | 18.89° C | 59% | 1009.1 hPa | - | - | - | - |
| 1778024014 | 21.67° C | 49% | 1008.1 hPa | - | - | - | - |
| 1778023415 | 21.67° C | 49% | 1008.1 hPa | - | - | - | - |
| 1778020413 | 23.89° C | 44% | 1007.5 hPa | - | - | - | - |
| 1778019811 | 23.89° C | 44% | 1007.5 hPa | - | - | - | - |
| 1778016815 | 22.78° C | 46% | 1007.5 hPa | - | - | - | - |
| 1778015013 | 22.78° C | 46% | 1007.5 hPa | - | - | - | - |
| 1778012012 | 23.89° C | 47% | 1007.5 hPa | - | - | - | - |
| 1778011411 | 23.89° C | 47% | 1007.5 hPa | - | - | - | - |
| 1778008413 | 22.78° C | 49% | 1008.8 hPa | - | - | - | - |
| 1778006017 | 22.78° C | 49% | 1009.1 hPa | - | - | - | - |
| 1778005415 | 22.78° C | 49% | 1009.1 hPa | - | - | - | - |
| 1778004215 | 22.78° C | 49% | 1009.1 hPa | - | - | - | - |
| 1778003009 | 23.89° C | 44% | 1009.5 hPa | - | - | - | - |
| 1778001811 | 23.89° C | 44% | 1009.5 hPa | - | - | - | - |
| 1778000014 | 22.78° C | 49% | 1010.5 hPa | - | - | - | - |
| 1777999416 | 22.78° C | 49% | 1010.5 hPa | - | - | - | - |
| 1777996416 | 22.78° C | 43% | 1010.8 hPa | - | - | - | - |
* Rain since midnight (hover to see other rain measurements)
** Current wind speed in m/s (hover to see current wind gust speed)